Time;durP1;ratioP1;P1;durP2;ratioP2;P2;SDS_P1;SDS_P2;PMS_P1;PMS_P2;Temp;Humidity;BMP_temperature;BMP_pressure;BME280_temperature;BME280_humidity;BME280_pressure;Samples;Min_cycle;Max_cycle;Signal;HPM_P1;HPM_P2
2023/04/14 00:01:03;;;;;;;8.80;3.33;;;6.60;53.90;;;;;;5052963;28;46459;-65
2023/04/14 00:03:29;;;;;;;7.10;3.30;;;6.60;53.80;;;;;;5054324;28;46525;-64
2023/04/14 00:05:55;;;;;;;4.33;2.90;;;6.60;53.90;;;;;;5050026;28;46401;-65
2023/04/14 00:08:20;;;;;;;7.73;3.73;;;6.60;53.80;;;;;;5053364;28;46567;-64
2023/04/14 00:10:46;;;;;;;4.50;3.13;;;6.60;54.00;;;;;;5053648;28;46487;-65
2023/04/14 00:13:12;;;;;;;6.60;3.50;;;6.60;53.90;;;;;;5052620;28;46429;-65
2023/04/14 00:15:40;;;;;;;9.60;3.50;;;6.60;54.20;;;;;;5049395;28;46632;-65
2023/04/14 00:18:05;;;;;;;10.50;3.53;;;6.70;54.30;;;;;;5054421;28;46399;-65
2023/04/14 00:20:31;;;;;;;7.17;3.60;;;6.70;54.20;;;;;;5053837;28;46469;-64
2023/04/14 00:22:56;;;;;;;6.30;4.07;;;6.70;54.10;;;;;;5053244;28;47157;-64
2023/04/14 00:25:22;;;;;;;5.27;3.50;;;6.80;54.20;;;;;;5049268;28;46293;-65
2023/04/14 00:27:48;;;;;;;5.60;3.70;;;6.80;54.20;;;;;;5048710;28;46502;-65
2023/04/14 00:30:14;;;;;;;6.47;3.70;;;6.80;54.10;;;;;;5049315;28;46639;-64
2023/04/14 00:32:39;;;;;;;6.00;4.00;;;6.80;54.10;;;;;;5048486;28;47224;-65
2023/04/14 00:35:05;;;;;;;8.43;4.23;;;6.80;54.40;;;;;;5051410;28;46528;-64
2023/04/14 00:37:31;;;;;;;6.53;3.80;;;6.70;54.30;;;;;;5048389;28;46409;-64
2023/04/14 00:39:56;;;;;;;8.57;4.50;;;6.70;54.50;;;;;;5051895;28;45799;-65
2023/04/14 00:42:22;;;;;;;8.27;4.67;;;6.70;54.60;;;;;;5049258;28;46645;-65
2023/04/14 00:44:48;;;;;;;7.40;4.23;;;6.70;54.80;;;;;;5053423;28;46443;-65
2023/04/14 00:47:13;;;;;;;9.80;5.50;;;6.70;54.80;;;;;;5053145;28;45770;-64
2023/04/14 00:49:39;;;;;;;9.70;4.43;;;6.70;54.80;;;;;;5047355;28;46558;-64
2023/04/14 00:52:05;;;;;;;5.43;4.23;;;6.70;55.00;;;;;;5051922;28;46122;-65
2023/04/14 00:54:33;;;;;;;10.23;5.07;;;6.70;55.10;;;;;;5047571;28;46464;-65
2023/04/14 00:56:59;;;;;;;16.80;5.13;;;6.70;55.00;;;;;;5048418;28;46322;-65
2023/04/14 00:59:27;;;;;;;8.30;5.23;;;6.80;55.00;;;;;;5048690;28;45922;-65
2023/04/14 01:01:55;;;;;;;8.23;4.83;;;6.80;54.90;;;;;;5050793;28;47433;-65
2023/04/14 01:04:21;;;;;;;7.37;4.97;;;6.90;54.80;;;;;;5048563;28;46291;-65
2023/04/14 01:06:47;;;;;;;10.10;4.30;;;6.90;54.70;;;;;;5049329;28;46377;-64
2023/04/14 01:09:15;;;;;;;7.50;4.77;;;6.80;54.70;;;;;;5050144;28;46576;-65
2023/04/14 01:11:46;;;;;;;5.83;4.00;;;6.90;54.80;;;;;;5051389;28;46464;-64
2023/04/14 01:14:39;;;;;;;5.90;4.17;;;6.80;55.00;;;;;;5051125;28;46308;-65
2023/04/14 01:17:25;;;;;;;8.93;4.97;;;6.80;55.20;;;;;;5050044;28;45812;-65
2023/04/14 01:20:17;;;;;;;6.10;4.20;;;6.80;55.20;;;;;;5046829;28;45936;-65
2023/04/14 01:22:47;;;;;;;10.97;4.13;;;6.80;55.30;;;;;;5062941;28;46305;-64
2023/04/14 01:26:01;;;;;;;5.93;4.00;;;6.70;55.50;;;;;;5050539;28;46393;-64
2023/04/14 01:28:38;;;;;;;6.10;4.23;;;6.70;56.00;;;;;;5043955;28;46667;-65
2023/04/14 01:31:27;;;;;;;6.70;4.17;;;6.60;56.90;;;;;;5052404;28;46518;-65
2023/04/14 01:34:03;;;;;;;8.13;4.43;;;6.50;57.60;;;;;;5048217;28;46418;-63
2023/04/14 01:36:45;;;;;;;10.60;4.73;;;6.40;58.60;;;;;;5050820;28;46409;-64
2023/04/14 01:39:17;;;;;;;10.50;4.53;;;6.30;60.00;;;;;;5051449;28;46446;-64
2023/04/14 01:41:47;;;;;;;10.30;5.43;;;6.30;61.70;;;;;;5049658;28;46414;-65
2023/04/14 01:44:15;;;;;;;8.00;5.40;;;6.20;62.70;;;;;;5047683;28;46469;-65
2023/04/14 01:46:43;;;;;;;6.60;4.47;;;6.20;63.80;;;;;;5047384;28;46361;-65
2023/04/14 01:49:10;;;;;;;7.63;4.70;;;6.20;63.60;;;;;;5047099;28;46465;-65
2023/04/14 01:51:37;;;;;;;8.60;4.80;;;6.20;63.70;;;;;;5050475;28;46508;-65
2023/04/14 01:54:06;;;;;;;13.40;5.27;;;6.20;63.80;;;;;;5049773;28;46409;-64
2023/04/14 01:56:33;;;;;;;11.50;4.90;;;6.10;64.80;;;;;;5052392;28;46402;-65
2023/04/14 01:59:00;;;;;;;9.40;5.63;;;6.10;65.20;;;;;;5048851;28;46454;-65
2023/04/14 02:01:27;;;;;;;8.90;4.83;;;6.00;65.60;;;;;;5053774;28;46167;-65
2023/04/14 02:03:53;;;;;;;10.00;5.90;;;6.00;65.90;;;;;;5046972;28;46446;-64
2023/04/14 02:06:21;;;;;;;8.23;4.80;;;6.00;66.20;;;;;;5051401;28;46432;-65
2023/04/14 02:08:47;;;;;;;9.13;5.97;;;6.00;67.20;;;;;;5047247;28;46448;-65
2023/04/14 02:11:14;;;;;;;8.20;5.27;;;6.00;66.70;;;;;;5049691;28;46385;-64
2023/04/14 02:13:42;;;;;;;10.03;5.50;;;6.00;66.80;;;;;;5049533;28;46960;-64
2023/04/14 02:16:10;;;;;;;9.77;5.40;;;6.00;67.20;;;;;;5048944;28;46551;-64
2023/04/14 02:18:38;;;;;;;11.77;6.50;;;6.00;66.90;;;;;;5048009;28;46467;-64
2023/04/14 02:21:04;;;;;;;10.40;5.40;;;6.10;66.40;;;;;;5051476;28;46220;-65
2023/04/14 02:23:30;;;;;;;12.10;6.43;;;6.10;66.20;;;;;;5047283;28;46475;-65
2023/04/14 02:26:11;;;;;;;15.57;5.70;;;6.10;65.90;;;;;;5051471;28;46461;-65
2023/04/14 02:28:44;;;;;;;12.07;7.30;;;6.10;65.80;;;;;;5054309;28;46422;-64
2023/04/14 02:31:15;;;;;;;9.93;6.23;;;6.20;65.70;;;;;;5052386;28;46274;-64
2023/04/14 02:33:42;;;;;;;10.20;6.37;;;6.20;65.60;;;;;;5049659;28;47012;-64
2023/04/14 02:36:22;;;;;;;15.67;7.37;;;6.10;65.70;;;;;;5047287;28;46529;-65
2023/04/14 02:38:56;;;;;;;9.67;6.33;;;6.20;65.80;;;;;;5044859;28;46397;-65
2023/04/14 02:41:24;;;;;;;11.80;6.57;;;6.10;65.80;;;;;;5047158;28;46493;-64
2023/04/14 02:44:00;;;;;;;11.40;6.40;;;6.20;65.50;;;;;;5046255;28;46437;-65
2023/04/14 02:46:28;;;;;;;13.70;7.40;;;6.20;65.10;;;;;;5047796;28;46372;-65
2023/04/14 02:48:56;;;;;;;9.53;5.80;;;6.30;64.80;;;;;;5046446;28;45831;-65
2023/04/14 02:51:23;;;;;;;9.50;6.37;;;6.30;64.90;;;;;;5049785;28;46399;-65
2023/04/14 02:53:49;;;;;;;10.40;6.07;;;6.30;64.90;;;;;;5047695;28;46315;-65
2023/04/14 02:56:15;;;;;;;12.33;6.30;;;6.30;64.80;;;;;;5048168;28;45807;-65
2023/04/14 02:58:41;;;;;;;9.23;6.00;;;6.30;65.20;;;;;;5050701;28;46389;-65
2023/04/14 03:01:07;;;;;;;14.87;7.83;;;6.20;64.90;;;;;;5054390;28;46754;-65
2023/04/14 03:03:36;;;;;;;10.63;5.80;;;6.30;64.80;;;;;;5056186;28;46098;-64
2023/04/14 03:06:06;;;;;;;10.93;6.50;;;6.30;64.90;;;;;;5051801;28;46424;-64
2023/04/14 03:08:33;;;;;;;15.37;6.50;;;6.30;65.00;;;;;;5052959;28;46316;-65
2023/04/14 03:11:00;;;;;;;11.23;6.60;;;6.20;64.90;;;;;;5051155;28;46743;-64
2023/04/14 03:13:27;;;;;;;13.50;6.80;;;6.20;65.10;;;;;;5051868;28;46451;-64
2023/04/14 03:15:53;;;;;;;10.67;7.00;;;6.20;65.20;;;;;;5051344;28;46361;-64
2023/04/14 03:18:20;;;;;;;10.57;6.77;;;6.10;65.20;;;;;;5058534;28;46465;-65
2023/04/14 03:20:49;;;;;;;12.50;6.80;;;6.10;65.30;;;;;;5057015;28;46832;-65
2023/04/14 03:23:17;;;;;;;13.67;6.23;;;6.10;65.60;;;;;;5050974;28;47126;-64
2023/04/14 03:25:44;;;;;;;9.70;6.03;;;6.10;65.50;;;;;;5051905;28;46294;-64
2023/04/14 03:28:14;;;;;;;16.30;7.00;;;6.10;65.50;;;;;;5056777;28;46264;-64
2023/04/14 03:30:45;;;;;;;9.73;6.00;;;6.00;65.40;;;;;;5049236;28;46140;-64
2023/04/14 03:33:13;;;;;;;9.10;6.00;;;6.00;65.90;;;;;;5055428;28;46124;-64
2023/04/14 03:35:40;;;;;;;9.30;6.03;;;5.90;66.20;;;;;;5049934;28;45829;-65
2023/04/14 03:38:09;;;;;;;9.63;5.53;;;5.90;66.30;;;;;;5050029;28;46473;-65
2023/04/14 03:40:39;;;;;;;11.23;5.57;;;5.90;66.40;;;;;;5051878;28;46417;-66
2023/04/14 03:43:08;;;;;;;11.47;6.13;;;5.90;66.30;;;;;;5051165;28;46508;-65
2023/04/14 03:45:37;;;;;;;11.53;5.33;;;5.90;66.50;;;;;;5049551;28;46381;-65
2023/04/14 03:48:06;;;;;;;10.73;5.67;;;5.90;66.80;;;;;;5057219;28;45960;-64
2023/04/14 03:50:35;;;;;;;9.03;5.60;;;5.90;67.00;;;;;;5054935;28;46267;-64
2023/04/14 03:53:03;;;;;;;8.57;5.33;;;5.90;66.90;;;;;;5055185;28;46312;-65
2023/04/14 03:55:32;;;;;;;9.30;5.27;;;5.90;66.90;;;;;;5052882;28;46436;-65
2023/04/14 03:58:00;;;;;;;11.70;5.87;;;6.00;66.90;;;;;;5051096;28;46377;-65
2023/04/14 04:00:26;;;;;;;10.60;5.00;;;6.00;66.80;;;;;;5050962;28;46370;-65
2023/04/14 04:02:53;;;;;;;9.40;5.97;;;6.00;68.20;;;;;;5052919;28;46410;-65
2023/04/14 04:05:20;;;;;;;10.80;5.57;;;5.90;67.40;;;;;;5052901;28;46527;-65
2023/04/14 04:07:49;;;;;;;13.13;5.90;;;5.90;67.60;;;;;;5050515;28;46455;-65
2023/04/14 04:10:15;;;;;;;11.97;5.60;;;5.90;68.00;;;;;;5052104;28;46423;-65
2023/04/14 04:12:42;;;;;;;12.90;5.00;;;5.80;68.30;;;;;;5052881;28;46374;-65
2023/04/14 04:15:09;;;;;;;9.23;5.53;;;5.80;68.80;;;;;;5049653;28;45867;-65
2023/04/14 04:17:37;;;;;;;15.30;5.87;;;5.80;69.10;;;;;;5049771;28;46439;-63
2023/04/14 04:20:08;;;;;;;15.07;5.70;;;5.80;69.30;;;;;;5048556;28;46307;-65
2023/04/14 04:22:38;;;;;;;10.60;5.40;;;5.70;69.10;;;;;;5053566;28;46540;-64
2023/04/14 04:25:05;;;;;;;9.07;5.50;;;5.70;69.10;;;;;;5052005;28;46656;-65
2023/04/14 04:27:32;;;;;;;10.27;6.07;;;5.80;69.00;;;;;;5050637;28;46666;-65
2023/04/14 04:29:58;;;;;;;10.67;5.80;;;5.80;68.80;;;;;;5047943;28;46510;-64
2023/04/14 04:32:24;;;;;;;10.93;6.20;;;5.80;69.00;;;;;;5055119;28;46407;-64
2023/04/14 04:34:51;;;;;;;10.70;6.07;;;5.80;69.40;;;;;;5051875;28;46429;-65
2023/04/14 04:37:18;;;;;;;10.30;6.00;;;5.80;69.20;;;;;;5050800;28;46384;-65
2023/04/14 04:39:44;;;;;;;12.07;6.90;;;5.80;69.10;;;;;;5050693;28;46595;-65
2023/04/14 04:42:10;;;;;;;13.60;7.33;;;5.80;68.90;;;;;;5047512;28;47446;-65
2023/04/14 04:44:35;;;;;;;10.90;6.80;;;5.90;68.70;;;;;;5052656;28;45791;-65
2023/04/14 04:47:01;;;;;;;14.20;7.17;;;5.90;68.20;;;;;;5053201;28;46533;-65
2023/04/14 04:49:27;;;;;;;13.60;7.10;;;6.00;68.00;;;;;;5046157;28;46059;-65
2023/04/14 04:51:53;;;;;;;12.23;7.27;;;6.00;67.90;;;;;;5049956;28;46312;-65
2023/04/14 04:54:19;;;;;;;17.70;7.10;;;6.00;67.70;;;;;;5056508;28;46464;-65
2023/04/14 04:56:45;;;;;;;11.53;6.97;;;6.00;68.30;;;;;;5052563;28;46427;-65
2023/04/14 04:59:11;;;;;;;12.77;7.53;;;5.90;68.30;;;;;;5051739;28;46515;-64
2023/04/14 05:01:37;;;;;;;16.83;8.30;;;5.90;68.30;;;;;;5053495;28;46432;-64
2023/04/14 05:04:02;;;;;;;11.17;7.23;;;6.00;68.50;;;;;;5049020;28;46366;-64
2023/04/14 05:06:28;;;;;;;10.17;6.00;;;5.90;68.60;;;;;;5049171;28;46468;-65
2023/04/14 05:08:54;;;;;;;10.10;6.80;;;5.90;68.50;;;;;;5050588;28;46544;-64
2023/04/14 05:11:20;;;;;;;9.77;6.50;;;6.00;68.60;;;;;;5049557;28;46533;-65
2023/04/14 05:13:46;;;;;;;13.70;7.07;;;6.00;68.60;;;;;;5055119;28;46385;-65
2023/04/14 05:16:13;;;;;;;10.30;6.50;;;6.00;68.70;;;;;;5061685;28;46259;-64
2023/04/14 05:18:40;;;;;;;11.20;6.17;;;6.00;69.10;;;;;;5046028;28;46409;-65
2023/04/14 05:21:08;;;;;;;9.30;5.87;;;5.90;69.40;;;;;;5050883;28;46464;-65
2023/04/14 05:23:35;;;;;;;12.60;6.30;;;5.90;69.80;;;;;;5048291;28;46360;-65
2023/04/14 05:26:01;;;;;;;9.27;5.40;;;5.90;70.10;;;;;;5048650;28;46516;-65
2023/04/14 05:28:27;;;;;;;10.87;6.40;;;5.90;70.10;;;;;;5049796;28;46557;-65
2023/04/14 05:30:53;;;;;;;8.60;5.57;;;6.00;70.20;;;;;;5048513;28;46438;-65
2023/04/14 05:33:19;;;;;;;14.20;5.70;;;6.00;69.90;;;;;;5049595;28;46456;-66
2023/04/14 05:35:45;;;;;;;14.43;5.80;;;6.10;69.50;;;;;;5055931;28;46357;-65
2023/04/14 05:38:12;;;;;;;10.20;6.40;;;6.30;69.30;;;;;;5053092;28;46367;-65
2023/04/14 05:40:38;;;;;;;12.53;6.00;;;6.40;68.80;;;;;;5049438;28;46429;-64
2023/04/14 05:43:04;;;;;;;9.40;5.60;;;6.50;68.40;;;;;;5049076;28;46376;-65
2023/04/14 05:45:30;;;;;;;9.57;5.93;;;6.60;68.20;;;;;;5050928;28;46381;-64
2023/04/14 05:47:56;;;;;;;9.63;5.80;;;6.70;67.70;;;;;;5051640;28;45794;-64
2023/04/14 05:50:22;;;;;;;10.03;5.47;;;6.70;67.60;;;;;;5049731;28;46358;-64
2023/04/14 05:52:48;;;;;;;9.97;4.87;;;6.70;67.80;;;;;;5051904;28;46468;-65
2023/04/14 05:55:14;;;;;;;7.07;4.47;;;6.70;68.00;;;;;;5051231;28;46528;-65
2023/04/14 05:57:40;;;;;;;9.90;4.60;;;6.60;68.20;;;;;;5047652;28;46548;-65
2023/04/14 06:00:07;;;;;;;7.73;4.83;;;6.60;68.40;;;;;;5047954;28;47332;-65
2023/04/14 06:02:32;;;;;;;6.17;3.97;;;6.50;68.50;;;;;;5045336;28;45748;-64
2023/04/14 06:05:01;;;;;;;9.57;4.43;;;6.50;68.80;;;;;;5047977;28;46469;-65
2023/04/14 06:07:27;;;;;;;7.67;4.30;;;6.50;68.70;;;;;;5047313;28;46560;-65
2023/04/14 06:09:53;;;;;;;5.93;4.10;;;6.50;68.70;;;;;;5045107;28;46418;-65
2023/04/14 06:12:19;;;;;;;6.50;3.90;;;6.70;69.00;;;;;;5049879;28;46409;-65
2023/04/14 06:14:45;;;;;;;8.60;4.10;;;6.60;68.90;;;;;;5050927;28;46505;-65
2023/04/14 06:17:10;;;;;;;9.50;3.97;;;6.60;68.60;;;;;;5048696;28;45860;-63
2023/04/14 06:19:36;;;;;;;8.03;4.10;;;6.60;68.70;;;;;;5048940;28;46398;-65
2023/04/14 06:22:02;;;;;;;13.37;4.17;;;6.60;68.90;;;;;;5048987;28;46405;-65
2023/04/14 06:24:27;;;;;;;10.10;3.90;;;6.70;69.40;;;;;;5050894;28;46365;-65
2023/04/14 06:26:53;;;;;;;7.20;3.70;;;6.70;69.30;;;;;;5046641;28;46544;-65
2023/04/14 06:29:19;;;;;;;7.17;3.80;;;6.70;69.40;;;;;;5050131;28;46030;-65
2023/04/14 06:31:45;;;;;;;7.93;4.03;;;6.80;69.40;;;;;;5048608;28;46472;-64
2023/04/14 06:34:11;;;;;;;5.70;4.00;;;6.90;69.60;;;;;;5053232;28;46459;-65
2023/04/14 06:36:36;;;;;;;7.00;4.10;;;6.90;69.50;;;;;;5048728;28;46381;-65
2023/04/14 06:39:03;;;;;;;12.20;3.63;;;7.00;69.60;;;;;;5047545;28;46434;-65
2023/04/14 06:41:29;;;;;;;8.40;3.50;;;6.90;69.60;;;;;;5044377;28;46346;-64
2023/04/14 06:43:55;;;;;;;8.47;3.23;;;6.90;69.60;;;;;;5048119;28;45898;-65
2023/04/14 06:46:20;;;;;;;5.73;3.10;;;7.00;69.80;;;;;;5049638;28;45927;-64
2023/04/14 06:48:46;;;;;;;9.00;3.63;;;7.00;69.60;;;;;;5049872;28;46361;-65
2023/04/14 06:51:12;;;;;;;8.90;3.77;;;7.00;69.80;;;;;;5046284;28;45744;-65
2023/04/14 06:53:38;;;;;;;10.43;4.13;;;7.00;69.70;;;;;;5048599;28;46519;-65
2023/04/14 06:56:08;;;;;;;6.53;3.57;;;7.00;69.60;;;;;;5051105;28;46385;-65
2023/04/14 06:58:33;;;;;;;9.70;3.50;;;7.10;69.70;;;;;;5052129;28;48302;-65
2023/04/14 07:01:01;;;;;;;6.47;3.40;;;7.20;69.40;;;;;;5046529;28;46460;-65
2023/04/14 07:03:29;;;;;;;8.67;4.17;;;7.30;68.90;;;;;;5048836;28;46404;-65
2023/04/14 07:06:01;;;;;;;9.93;3.60;;;7.40;68.50;;;;;;5051112;28;46263;-65
2023/04/14 07:08:30;;;;;;;8.77;3.37;;;7.40;68.20;;;;;;5053932;28;46055;-65
2023/04/14 07:11:00;;;;;;;10.57;3.50;;;7.40;68.30;;;;;;5046872;28;46357;-66
2023/04/14 07:13:26;;;;;;;18.90;4.00;;;7.40;68.20;;;;;;5048315;28;45886;-65
2023/04/14 07:15:51;;;;;;;11.60;3.50;;;7.50;68.10;;;;;;5047649;28;46585;-63
2023/04/14 07:18:17;;;;;;;6.63;3.37;;;7.60;67.60;;;;;;5052543;28;47965;-65
2023/04/14 07:20:42;;;;;;;15.87;3.00;;;7.80;67.60;;;;;;5046322;28;46405;-65
2023/04/14 07:23:08;;;;;;;9.93;2.90;;;7.50;67.30;;;;;;5053433;28;46457;-65
2023/04/14 07:25:35;;;;;;;9.97;2.93;;;7.40;67.50;;;;;;5049326;28;46424;-64
2023/04/14 07:28:02;;;;;;;7.47;3.13;;;7.50;67.40;;;;;;5051214;28;46447;-65
2023/04/14 07:30:27;;;;;;;7.80;2.83;;;7.50;67.20;;;;;;5048594;28;46667;-65
2023/04/14 07:32:53;;;;;;;6.37;2.80;;;7.60;67.00;;;;;;5049451;28;46421;-65
2023/04/14 07:35:18;;;;;;;6.77;2.60;;;7.60;66.90;;;;;;5046876;28;46863;-65
2023/04/14 07:37:44;;;;;;;9.37;3.30;;;7.70;66.30;;;;;;5048302;28;46452;-64
2023/04/14 07:40:10;;;;;;;7.73;3.07;;;7.70;66.10;;;;;;5048522;28;46365;-65
2023/04/14 07:42:36;;;;;;;9.20;3.50;;;7.80;65.90;;;;;;5051743;28;46374;-64
2023/04/14 07:45:02;;;;;;;8.33;3.50;;;7.90;65.70;;;;;;5051625;28;46486;-65
2023/04/14 07:47:28;;;;;;;8.77;3.60;;;8.00;65.50;;;;;;5049238;28;46110;-65
2023/04/14 07:49:55;;;;;;;8.43;3.33;;;8.20;64.90;;;;;;5048963;28;46452;-65
2023/04/14 07:52:21;;;;;;;7.43;3.20;;;8.20;64.80;;;;;;5054017;28;45847;-64
2023/04/14 07:54:47;;;;;;;13.30;4.07;;;8.40;64.20;;;;;;5049708;28;46440;-65
2023/04/14 07:57:13;;;;;;;6.13;3.40;;;8.50;64.10;;;;;;5049968;28;47334;-65
2023/04/14 07:59:41;;;;;;;10.97;3.30;;;8.60;64.20;;;;;;5050326;28;46570;-64
2023/04/14 08:02:10;;;;;;;8.67;3.73;;;8.70;63.50;;;;;;5049295;28;46491;-65
2023/04/14 08:04:36;;;;;;;7.43;3.37;;;8.70;63.10;;;;;;5053660;28;46335;-65
2023/04/14 08:07:01;;;;;;;14.13;3.90;;;8.60;63.40;;;;;;5049689;28;46614;-65
2023/04/14 08:09:27;;;;;;;9.13;3.80;;;8.80;63.50;;;;;;5052908;28;46498;-64
2023/04/14 08:11:53;;;;;;;7.33;3.00;;;9.00;64.20;;;;;;5051775;28;46434;-66
2023/04/14 08:14:19;;;;;;;14.80;3.43;;;9.20;62.20;;;;;;5051191;28;46654;-65
2023/04/14 08:16:44;;;;;;;9.57;3.47;;;9.20;61.50;;;;;;5047164;28;46952;-65
2023/04/14 08:19:10;;;;;;;10.30;3.13;;;9.30;61.10;;;;;;5052219;28;46444;-65
2023/04/14 08:21:36;;;;;;;7.47;3.03;;;9.30;61.40;;;;;;5047396;28;46442;-65
2023/04/14 08:24:01;;;;;;;8.97;3.47;;;9.00;60.70;;;;;;5054331;28;46460;-65
2023/04/14 08:26:27;;;;;;;10.73;3.10;;;8.90;61.20;;;;;;5050991;28;47422;-65
2023/04/14 08:28:53;;;;;;;8.67;3.87;;;9.10;61.10;;;;;;5052433;28;46416;-64
2023/04/14 08:31:22;;;;;;;8.30;2.90;;;9.30;60.50;;;;;;5052988;28;46411;-65
2023/04/14 08:33:48;;;;;;;8.80;3.00;;;9.60;59.70;;;;;;5049478;28;46574;-65
2023/04/14 08:36:13;;;;;;;9.70;3.60;;;9.80;58.90;;;;;;5049880;28;47827;-66
2023/04/14 08:38:39;;;;;;;10.70;2.73;;;9.70;57.70;;;;;;5050685;28;45783;-65
2023/04/14 08:41:08;;;;;;;6.07;2.70;;;9.70;57.60;;;;;;5051852;28;45865;-65
2023/04/14 08:43:34;;;;;;;8.57;3.00;;;9.80;57.70;;;;;;5053159;28;46305;-65
2023/04/14 08:46:01;;;;;;;8.33;2.97;;;9.80;57.50;;;;;;5051976;28;46431;-65
2023/04/14 08:48:29;;;;;;;10.27;2.93;;;9.70;57.60;;;;;;5049712;28;46291;-65
2023/04/14 08:51:06;;;;;;;11.70;3.50;;;9.80;57.20;;;;;;5050458;28;46445;-65
2023/04/14 08:53:32;;;;;;;10.20;2.97;;;9.50;57.30;;;;;;5047164;28;46379;-66
2023/04/14 08:56:03;;;;;;;5.37;3.00;;;9.50;57.80;;;;;;5050509;28;47029;-65
2023/04/14 08:58:30;;;;;;;7.87;3.33;;;9.30;57.50;;;;;;5051080;28;46405;-65
2023/04/14 09:00:56;;;;;;;8.03;3.30;;;9.20;57.70;;;;;;5052995;28;46508;-65
2023/04/14 09:03:23;;;;;;;8.67;3.23;;;9.20;57.70;;;;;;5049977;28;45937;-66
2023/04/14 09:05:49;;;;;;;7.67;3.30;;;9.20;57.50;;;;;;5047778;28;46695;-65
2023/04/14 09:08:15;;;;;;;8.57;3.80;;;9.30;57.20;;;;;;5050704;28;46275;-65
2023/04/14 09:10:41;;;;;;;6.97;2.87;;;9.30;57.00;;;;;;5054163;28;46328;-64
2023/04/14 09:13:10;;;;;;;8.87;3.47;;;9.40;56.60;;;;;;5048223;28;46430;-65
2023/04/14 09:15:37;;;;;;;9.63;3.37;;;9.30;56.20;;;;;;5050056;28;46294;-65
2023/04/14 09:18:03;;;;;;;10.83;3.10;;;9.30;56.20;;;;;;5054328;28;46457;-65
2023/04/14 09:20:29;;;;;;;5.63;3.10;;;9.30;56.10;;;;;;5050555;28;46523;-65
2023/04/14 09:22:55;;;;;;;7.07;3.33;;;9.40;56.10;;;;;;5048294;28;46590;-66
2023/04/14 09:25:21;;;;;;;7.70;3.10;;;9.70;55.50;;;;;;5049771;28;46536;-65
2023/04/14 09:27:48;;;;;;;9.40;3.60;;;10.10;53.40;;;;;;5046666;28;46377;-65
2023/04/14 09:30:16;;;;;;;6.60;2.90;;;10.30;52.10;;;;;;5049691;28;46436;-65
2023/04/14 09:32:43;;;;;;;8.63;3.00;;;10.80;52.40;;;;;;5048913;28;45952;-66
2023/04/14 09:35:12;;;;;;;15.23;6.93;;;10.90;50.90;;;;;;5051839;28;47083;-66
2023/04/14 09:37:43;;;;;;;15.13;3.83;;;11.00;50.60;;;;;;5050883;28;46345;-66
2023/04/14 09:40:10;;;;;;;10.23;3.93;;;11.00;50.60;;;;;;5050312;28;46341;-66
2023/04/14 09:42:41;;;;;;;10.10;4.33;;;10.80;49.40;;;;;;5049692;28;46485;-68
2023/04/14 09:45:08;;;;;;;6.27;3.50;;;10.50;50.30;;;;;;5051869;28;46643;-68
2023/04/14 09:47:34;;;;;;;7.40;3.30;;;10.60;50.50;;;;;;5047613;28;46496;-68
2023/04/14 09:50:02;;;;;;;7.10;2.87;;;10.50;51.00;;;;;;5046160;28;45887;-68
2023/04/14 09:52:40;;;;;;;6.10;3.10;;;10.50;51.10;;;;;;5049581;28;45962;-68
2023/04/14 09:55:09;;;;;;;9.03;3.50;;;10.60;51.60;;;;;;5050556;28;46390;-68
2023/04/14 09:57:38;;;;;;;12.70;3.40;;;10.50;51.10;;;;;;5046810;28;46456;-68
2023/04/14 10:00:19;;;;;;;9.30;3.10;;;10.40;51.90;;;;;;5052215;28;46472;-68
2023/04/14 10:02:54;;;;;;;13.53;3.60;;;10.40;49.80;;;;;;5048012;28;45758;-68
2023/04/14 10:05:28;;;;;;;8.30;2.90;;;10.50;50.20;;;;;;5050865;28;47005;-68
2023/04/14 10:07:54;;;;;;;10.97;3.00;;;10.50;49.80;;;;;;5049845;28;46381;-69
2023/04/14 10:10:21;;;;;;;6.33;2.97;;;10.50;49.40;;;;;;5049382;28;46456;-68
2023/04/14 10:12:47;;;;;;;5.07;2.97;;;10.50;49.40;;;;;;5045272;28;46423;-68
2023/04/14 10:15:14;;;;;;;9.07;2.87;;;10.60;49.40;;;;;;5052885;28;47984;-68
2023/04/14 10:17:41;;;;;;;6.67;2.70;;;10.40;49.60;;;;;;5050046;28;46465;-69
2023/04/14 10:20:07;;;;;;;11.13;3.53;;;10.40;49.20;;;;;;5045025;28;46414;-68
2023/04/14 10:22:33;;;;;;;5.60;3.27;;;10.70;49.40;;;;;;5051868;28;46342;-70
2023/04/14 10:24:59;;;;;;;11.13;3.53;;;11.10;47.70;;;;;;5049176;28;46298;-68
2023/04/14 10:27:30;;;;;;;10.50;3.67;;;11.10;46.90;;;;;;5049819;28;46359;-69
2023/04/14 10:29:57;;;;;;;7.23;2.93;;;11.20;47.10;;;;;;5048062;28;45828;-68
2023/04/14 10:32:27;;;;;;;16.07;3.30;;;11.40;46.30;;;;;;5046648;28;46381;-68
2023/04/14 10:35:02;;;;;;;8.60;2.77;;;11.50;46.00;;;;;;5047311;28;46599;-69
2023/04/14 10:37:28;;;;;;;8.63;2.73;;;11.40;45.20;;;;;;5048246;28;46949;-69
2023/04/14 10:39:55;;;;;;;12.33;3.50;;;11.60;45.00;;;;;;5048001;28;46473;-68
2023/04/14 10:42:22;;;;;;;7.13;2.30;;;11.70;42.80;;;;;;5050543;28;46667;-68
2023/04/14 10:45:05;;;;;;;5.90;2.57;;;11.70;41.80;;;;;;5048815;28;46610;-68
2023/04/14 10:47:34;;;;;;;10.70;2.57;;;12.10;41.10;;;;;;5046573;28;46482;-69
2023/04/14 10:50:13;;;;;;;6.37;2.77;;;12.30;40.50;;;;;;5047792;28;46294;-69
2023/04/14 10:52:49;;;;;;;9.17;3.17;;;12.20;40.40;;;;;;5050617;28;45946;-68
2023/04/14 10:55:15;;;;;;;17.00;3.60;;;12.20;40.40;;;;;;5043104;28;46671;-68
2023/04/14 10:57:43;;;;;;;7.43;2.63;;;12.00;40.90;;;;;;5051823;28;46530;-69
2023/04/14 11:00:31;;;;;;;8.33;2.60;;;11.60;41.90;;;;;;5047902;28;46401;-69
2023/04/14 11:03:09;;;;;;;10.80;2.37;;;11.10;42.80;;;;;;5048511;28;46389;-69
2023/04/14 11:05:40;;;;;;;8.93;2.40;;;10.70;43.80;;;;;;5048472;28;48471;-69
2023/04/14 11:08:26;;;;;;;6.03;2.93;;;10.40;44.40;;;;;;5049358;28;46353;-69
2023/04/14 11:11:03;;;;;;;5.23;2.60;;;10.50;44.50;;;;;;5052890;28;46396;-68
2023/04/14 11:13:29;;;;;;;16.17;2.90;;;10.80;44.10;;;;;;5046964;28;46457;-70
2023/04/14 11:16:06;;;;;;;6.37;3.43;;;11.10;43.80;;;;;;5048055;28;46447;-69
2023/04/14 11:18:37;;;;;;;7.10;3.27;;;11.50;43.10;;;;;;5047237;28;46263;-69
2023/04/14 11:21:10;;;;;;;8.77;3.47;;;11.80;42.80;;;;;;5045164;28;46313;-69
2023/04/14 11:23:37;;;;;;;7.70;3.10;;;11.90;42.80;;;;;;5054638;28;46544;-70
2023/04/14 11:26:07;;;;;;;9.57;3.47;;;12.20;42.30;;;;;;5058914;28;46451;-69
2023/04/14 11:28:35;;;;;;;9.90;3.30;;;12.60;41.80;;;;;;5049629;28;46467;-69
2023/04/14 11:31:04;;;;;;;9.63;3.73;;;12.60;39.80;;;;;;5048518;28;46389;-68
2023/04/14 11:33:37;;;;;;;8.93;3.00;;;12.60;39.20;;;;;;5057787;28;46435;-69
2023/04/14 11:36:04;;;;;;;8.93;2.50;;;12.00;38.10;;;;;;5053621;28;46414;-68
2023/04/14 11:38:31;;;;;;;7.80;2.50;;;11.60;38.80;;;;;;5049434;28;46425;-68
2023/04/14 11:40:57;;;;;;;7.73;3.00;;;11.40;39.10;;;;;;5051698;28;46373;-68
2023/04/14 11:43:23;;;;;;;8.10;3.27;;;11.50;38.80;;;;;;5053423;28;46460;-68
2023/04/14 11:45:51;;;;;;;7.50;2.33;;;11.60;39.30;;;;;;5048781;28;46660;-69
2023/04/14 11:48:18;;;;;;;7.73;2.40;;;11.70;39.90;;;;;;5051285;28;46417;-70
2023/04/14 11:50:45;;;;;;;11.00;3.53;;;11.80;40.10;;;;;;5053601;28;46396;-69
2023/04/14 11:53:17;;;;;;;4.47;2.10;;;12.00;40.00;;;;;;5050193;28;46455;-69
2023/04/14 11:55:46;;;;;;;8.53;2.37;;;12.20;39.70;;;;;;5050822;28;47031;-70
2023/04/14 11:58:13;;;;;;;8.80;3.20;;;12.70;39.90;;;;;;5047854;28;46465;-70
2023/04/14 12:00:40;;;;;;;8.50;3.00;;;13.20;38.70;;;;;;5052395;28;46290;-68
2023/04/14 12:03:07;;;;;;;5.80;2.53;;;13.40;37.00;;;;;;5050576;28;46651;-70
2023/04/14 12:05:34;;;;;;;5.07;1.90;;;13.60;36.60;;;;;;5053816;28;46712;-70
2023/04/14 12:08:02;;;;;;;11.43;3.73;;;13.40;35.50;;;;;;5048930;28;45816;-69
2023/04/14 12:10:28;;;;;;;13.90;3.00;;;13.30;36.50;;;;;;5054422;28;46327;-70
2023/04/14 12:13:02;;;;;;;6.10;2.50;;;13.40;35.80;;;;;;5050677;28;46386;-69
2023/04/14 12:15:30;;;;;;;9.47;2.73;;;13.30;35.10;;;;;;5049586;28;46373;-69
2023/04/14 12:17:56;;;;;;;13.80;3.10;;;13.10;34.10;;;;;;5055105;28;46475;-68
2023/04/14 12:20:22;;;;;;;10.53;2.60;;;12.70;34.10;;;;;;5052209;28;46408;-68
2023/04/14 12:22:48;;;;;;;10.97;2.70;;;12.30;33.50;;;;;;5052040;28;45937;-68
2023/04/14 12:25:14;;;;;;;11.10;2.50;;;12.30;32.70;;;;;;5048446;28;46086;-69
2023/04/14 12:27:40;;;;;;;5.33;1.90;;;12.40;32.80;;;;;;5051076;28;46515;-69
2023/04/14 12:30:06;;;;;;;6.77;2.10;;;12.40;31.40;;;;;;5053969;28;46397;-69
2023/04/14 12:32:42;;;;;;;15.00;3.90;;;12.20;31.50;;;;;;5051276;28;46453;-69
2023/04/14 12:35:08;;;;;;;7.70;2.10;;;12.40;31.20;;;;;;5051683;28;46562;-69
2023/04/14 12:37:34;;;;;;;8.73;3.33;;;12.70;30.50;;;;;;5050976;28;46394;-68
2023/04/14 12:40:05;;;;;;;6.17;2.87;;;12.70;30.30;;;;;;5050488;28;46325;-69
2023/04/14 12:43:03;;;;;;;11.77;2.43;;;12.90;31.40;;;;;;5053237;28;46561;-68
2023/04/14 12:45:45;;;;;;;5.63;2.00;;;13.10;32.00;;;;;;5010512;28;47186;-69
2023/04/14 12:48:12;;;;;;;5.10;1.80;;;13.00;32.60;;;;;;5049930;28;46515;-68
2023/04/14 12:50:38;;;;;;;9.10;2.27;;;13.30;31.90;;;;;;5053332;28;46396;-69
2023/04/14 12:53:27;;;;;;;5.90;2.17;;;13.70;31.00;;;;;;5050051;28;45788;-68
2023/04/14 12:56:09;;;;;;;6.63;1.80;;;13.90;30.80;;;;;;5046686;28;47820;-65